createdAt,value
2018-10-02T04:00:41.607Z,2.08
2018-10-02T04:01:14.209Z,1.45
2018-10-02T04:01:46.852Z,2.15
2018-10-02T04:02:19.526Z,2.15
2018-10-02T04:02:52.150Z,1.85
2018-10-02T04:03:24.754Z,2.00
2018-10-02T04:03:57.364Z,2.02
2018-10-02T04:04:29.992Z,2.08
2018-10-02T04:05:02.620Z,2.02
2018-10-02T04:05:35.249Z,2.37
2018-10-02T04:06:07.957Z,2.40
2018-10-02T04:06:40.559Z,2.30
2018-10-02T04:07:13.176Z,1.90
2018-10-02T04:07:45.808Z,1.87
2018-10-02T04:08:18.392Z,1.72
2018-10-02T04:08:51.032Z,1.92
2018-10-02T04:09:23.616Z,1.65
2018-10-02T04:09:56.212Z,2.10
2018-10-02T04:10:28.825Z,2.20
2018-10-02T04:11:01.421Z,1.65
2018-10-02T04:11:34.104Z,1.80
2018-10-02T04:12:06.828Z,2.15
2018-10-02T04:12:39.497Z,2.80
2018-10-02T04:13:12.225Z,2.08
2018-10-02T04:13:44.800Z,2.20
2018-10-02T04:14:17.429Z,1.80
2018-10-02T04:14:50.061Z,2.25
2018-10-02T04:15:22.732Z,2.45
2018-10-02T04:15:55.341Z,2.60
2018-10-02T04:16:27.981Z,1.95
2018-10-02T04:17:00.698Z,2.00
2018-10-02T04:17:33.375Z,2.33
2018-10-02T04:18:06.011Z,2.00
2018-10-02T04:18:38.659Z,2.40
2018-10-02T04:19:11.297Z,2.20
2018-10-02T04:19:43.935Z,1.90
2018-10-02T04:20:16.613Z,2.10
2018-10-02T04:20:49.323Z,1.98
2018-10-02T04:21:26.499Z,1.82
2018-10-02T04:21:59.193Z,2.12
2018-10-02T04:22:31.853Z,2.40
2018-10-02T04:23:04.543Z,1.95
2018-10-02T04:23:37.193Z,2.30
2018-10-02T04:24:09.811Z,2.10
2018-10-02T04:24:42.472Z,2.45
2018-10-02T04:25:15.119Z,2.00
2018-10-02T04:25:47.748Z,1.98
2018-10-02T04:26:20.385Z,1.92
2018-10-02T04:26:53.029Z,2.15
2018-10-02T04:27:25.645Z,2.30
2018-10-02T04:27:58.346Z,2.40
2018-10-02T04:28:31.012Z,2.47
2018-10-02T04:29:04.440Z,2.90
2018-10-02T04:29:37.103Z,1.95
2018-10-02T04:30:09.771Z,2.30
2018-10-02T04:30:42.433Z,1.98
2018-10-02T04:31:15.092Z,2.35
2018-10-02T04:31:47.756Z,2.30
2018-10-02T04:32:20.421Z,2.00
2018-10-02T04:32:53.058Z,2.02
2018-10-02T04:33:26.284Z,2.47
2018-10-02T04:33:58.952Z,2.40
2018-10-02T04:34:31.636Z,2.27
2018-10-02T04:35:04.361Z,2.20
2018-10-02T04:35:36.988Z,2.25
2018-10-02T04:36:09.671Z,2.47
2018-10-02T04:37:45.711Z,2.25
2018-10-02T04:38:18.417Z,2.15
2018-10-02T04:38:51.271Z,2.72
2018-10-02T04:39:23.915Z,2.30
2018-10-02T04:39:56.601Z,2.58
2018-10-02T04:40:29.273Z,2.33
2018-10-02T04:41:01.916Z,2.40
2018-10-02T04:41:34.577Z,2.70
2018-10-02T04:42:07.293Z,2.40
2018-10-02T04:42:39.921Z,2.72
2018-10-02T04:43:12.648Z,3.47
2018-10-02T04:43:45.331Z,2.77
2018-10-02T04:44:18.004Z,2.67
2018-10-02T04:44:50.650Z,2.35
2018-10-02T04:45:23.290Z,2.17
2018-10-02T04:45:55.950Z,2.20
2018-10-02T04:46:28.573Z,2.20
2018-10-02T04:47:01.220Z,1.95
2018-10-02T04:47:33.869Z,2.50
2018-10-02T04:48:06.497Z,2.10
2018-10-02T04:48:39.116Z,2.58
2018-10-02T04:49:11.717Z,2.70
2018-10-02T04:49:44.420Z,1.87
2018-10-02T04:50:17.082Z,2.50
2018-10-02T04:50:49.757Z,2.83
2018-10-02T04:51:22.396Z,2.83
2018-10-02T04:51:55.084Z,2.60
2018-10-02T04:52:27.783Z,2.80
2018-10-02T04:53:00.504Z,2.65
2018-10-02T04:53:33.628Z,2.40
2018-10-02T04:54:06.335Z,2.80
2018-10-02T04:54:39.005Z,3.12
2018-10-02T04:55:11.760Z,2.35
2018-10-02T04:55:44.429Z,2.65
2018-10-02T04:56:17.074Z,2.70
2018-10-02T04:56:49.676Z,2.72
2018-10-02T04:57:22.333Z,2.47
2018-10-02T04:57:55.015Z,2.67
2018-10-02T04:58:27.677Z,2.65
2018-10-02T04:59:00.327Z,2.42
2018-10-02T04:59:32.984Z,2.72
2018-10-02T05:00:12.620Z,3.42
2018-10-02T05:00:45.293Z,2.67
2018-10-02T05:01:17.933Z,2.45
2018-10-02T05:01:50.624Z,3.15
2018-10-02T05:02:23.277Z,2.70
2018-10-02T05:02:55.930Z,2.50
2018-10-02T05:03:28.570Z,2.50
2018-10-02T05:04:01.201Z,2.72
2018-10-02T05:04:33.815Z,3.20
2018-10-02T05:05:06.409Z,2.40
2018-10-02T05:05:39.094Z,3.00
2018-10-02T05:06:11.775Z,2.95
2018-10-02T05:06:44.362Z,2.98
2018-10-02T05:07:16.993Z,2.75
2018-10-02T05:07:49.589Z,3.47
2018-10-02T05:08:22.232Z,3.25
2018-10-02T05:08:54.828Z,2.90
2018-10-02T05:09:27.437Z,2.90
2018-10-02T05:10:00.070Z,3.42
2018-10-02T05:10:32.672Z,3.33
2018-10-02T05:11:05.365Z,3.65
2018-10-02T05:11:37.997Z,2.98
2018-10-02T05:12:10.610Z,2.98
2018-10-02T05:12:43.232Z,3.27
2018-10-02T05:13:15.917Z,3.20
2018-10-02T05:13:48.521Z,3.10
2018-10-02T05:14:21.105Z,2.72
2018-10-02T05:14:53.697Z,3.92
2018-10-02T05:15:26.280Z,3.67
2018-10-02T05:15:58.898Z,3.40
2018-10-02T05:16:31.864Z,3.67
2018-10-02T05:17:04.476Z,3.75
2018-10-02T05:17:37.082Z,3.92
2018-10-02T05:18:09.726Z,4.70
2018-10-02T05:18:42.340Z,4.87
2018-10-02T05:19:14.968Z,4.08
2018-10-02T05:19:47.554Z,4.90
2018-10-02T05:20:20.160Z,4.85
2018-10-02T05:20:52.761Z,4.08
2018-10-02T05:21:25.418Z,4.37
2018-10-02T05:21:58.105Z,4.70
2018-10-02T05:22:30.872Z,4.40
2018-10-02T05:23:03.506Z,4.95
2018-10-02T05:23:36.107Z,5.22
2018-10-02T05:24:08.711Z,6.50
2018-10-02T05:24:41.326Z,7.60
2018-10-02T05:25:14.006Z,6.95
2018-10-02T05:25:46.610Z,7.37
2018-10-02T05:26:19.211Z,5.42
2018-10-02T05:26:51.856Z,6.60
2018-10-02T05:27:24.554Z,6.65
2018-10-02T05:27:57.105Z,5.95
2018-10-02T05:28:29.751Z,5.95
2018-10-02T05:29:02.384Z,5.90
2018-10-02T05:29:35.021Z,5.37
2018-10-02T05:30:07.742Z,5.75
2018-10-02T05:30:40.362Z,5.10
2018-10-02T05:31:12.993Z,5.80
2018-10-02T05:31:46.026Z,5.53
2018-10-02T05:32:18.725Z,5.30
2018-10-02T05:32:51.354Z,5.67
2018-10-02T05:33:24.036Z,5.90
2018-10-02T05:33:56.634Z,5.72
2018-10-02T05:34:29.247Z,6.03
2018-10-02T05:35:01.933Z,6.55
2018-10-02T05:35:34.622Z,6.25
2018-10-02T05:36:07.257Z,6.05
2018-10-02T05:36:39.852Z,5.22
2018-10-02T05:37:12.468Z,5.45
2018-10-02T05:37:45.352Z,5.35
2018-10-02T05:38:18.027Z,5.25
2018-10-02T05:38:50.660Z,5.35
2018-10-02T05:39:23.276Z,5.65
2018-10-02T05:39:55.905Z,6.37
2018-10-02T05:40:28.557Z,5.87
2018-10-02T05:41:01.168Z,5.80
2018-10-02T05:41:33.768Z,5.92
2018-10-02T05:42:06.431Z,5.78
2018-10-02T05:42:39.070Z,6.25
2018-10-02T05:43:11.656Z,5.78
2018-10-02T05:43:44.316Z,5.35
2018-10-02T05:44:16.925Z,4.90
2018-10-02T05:44:49.571Z,6.30
2018-10-02T05:45:22.221Z,5.15
2018-10-02T05:45:54.869Z,5.97
2018-10-02T05:46:27.496Z,5.85
2018-10-02T05:47:00.104Z,6.17
2018-10-02T05:47:32.705Z,6.35
2018-10-02T05:48:05.341Z,5.60
2018-10-02T05:48:37.945Z,6.00
2018-10-02T05:49:10.604Z,5.92
2018-10-02T05:49:43.244Z,5.53
2018-10-02T05:50:15.872Z,5.30
2018-10-02T05:50:48.488Z,5.75
2018-10-02T05:51:21.065Z,5.67
2018-10-02T05:51:53.697Z,5.62
2018-10-02T05:52:26.317Z,6.25
2018-10-02T05:52:58.938Z,6.50
2018-10-02T05:53:38.180Z,5.72
2018-10-02T05:54:10.825Z,5.65
2018-10-02T05:54:43.466Z,5.12
2018-10-02T05:55:16.100Z,5.70
2018-10-02T05:55:48.703Z,5.87
2018-10-02T05:56:21.316Z,6.55
2018-10-02T05:56:53.904Z,5.97
2018-10-02T05:57:26.586Z,5.67
2018-10-02T05:57:59.299Z,6.35
2018-10-02T05:58:32.035Z,6.30
2018-10-02T05:59:04.753Z,6.30
2018-10-02T05:59:37.370Z,6.58
2018-10-02T06:00:10.049Z,6.40
2018-10-02T06:00:42.688Z,5.90
2018-10-02T06:01:15.375Z,6.30
2018-10-02T06:01:48.434Z,6.55
2018-10-02T06:02:23.811Z,6.42
2018-10-02T06:02:56.472Z,6.60
2018-10-02T06:03:29.117Z,6.60
2018-10-02T06:04:01.745Z,6.03
2018-10-02T06:04:34.357Z,6.05
2018-10-02T06:05:07.073Z,7.33
2018-10-02T06:05:39.710Z,5.78
2018-10-02T06:06:12.311Z,5.90
2018-10-02T06:06:44.928Z,5.80
2018-10-02T06:07:17.550Z,6.40
2018-10-02T06:07:50.157Z,6.85
2018-10-02T06:08:22.776Z,6.72
2018-10-02T06:08:55.372Z,6.92
2018-10-02T06:09:28.000Z,7.75
2018-10-02T06:10:00.715Z,6.40
2018-10-02T06:10:33.328Z,7.00
2018-10-02T06:11:06.233Z,6.70
2018-10-02T06:11:38.961Z,7.33
2018-10-02T06:12:11.591Z,6.35
2018-10-02T06:12:44.229Z,6.50
2018-10-02T06:13:16.824Z,6.50
2018-10-02T06:13:49.460Z,7.62
2018-10-02T06:14:22.083Z,6.58
2018-10-02T06:14:54.723Z,7.00
2018-10-02T06:15:27.338Z,7.22
2018-10-02T06:15:59.998Z,7.78
2018-10-02T06:16:33.210Z,6.92
2018-10-02T06:17:06.070Z,7.20
2018-10-02T06:17:38.799Z,7.37
2018-10-02T06:18:11.399Z,7.80
2018-10-02T06:18:44.058Z,7.08
2018-10-02T06:19:16.732Z,6.50
2018-10-02T06:19:49.474Z,6.65
2018-10-02T06:20:22.081Z,7.12
2018-10-02T06:20:54.732Z,7.30
2018-10-02T06:21:27.400Z,7.17
2018-10-02T06:22:00.039Z,7.42
2018-10-02T06:22:32.619Z,6.53
2018-10-02T06:23:05.317Z,6.78
2018-10-02T06:23:37.968Z,7.60
2018-10-02T06:24:10.633Z,6.65
2018-10-02T06:24:43.260Z,6.72
2018-10-02T06:25:15.950Z,7.33
2018-10-02T06:25:48.567Z,7.87
2018-10-02T06:26:21.224Z,7.05
2018-10-02T06:26:53.908Z,7.70
2018-10-02T06:27:26.513Z,7.12
2018-10-02T06:27:59.121Z,7.10
2018-10-02T06:28:31.711Z,7.22
2018-10-02T06:29:04.352Z,7.67
2018-10-02T06:29:37.015Z,6.92
2018-10-02T06:30:09.805Z,7.03
2018-10-02T06:30:42.407Z,7.92
2018-10-02T06:31:15.117Z,6.75
2018-10-02T06:31:47.732Z,7.50
2018-10-02T06:32:20.392Z,8.25
2018-10-02T06:32:53.031Z,6.80
2018-10-02T06:33:25.625Z,7.22
2018-10-02T06:33:58.262Z,6.97
2018-10-02T06:34:30.905Z,7.70
2018-10-02T06:35:03.584Z,7.80
2018-10-02T06:35:36.273Z,7.45
2018-10-02T06:36:08.906Z,7.47
2018-10-02T06:36:41.544Z,7.50
2018-10-02T06:37:14.174Z,6.75
2018-10-02T06:37:46.854Z,7.87
2018-10-02T06:38:19.558Z,7.75
2018-10-02T06:38:52.275Z,7.30
2018-10-02T06:39:25.832Z,7.17
2018-10-02T06:39:58.740Z,7.83
2018-10-02T06:40:35.491Z,8.33
2018-10-02T06:41:11.947Z,7.90
2018-10-02T06:41:47.997Z,7.17
2018-10-02T06:42:21.179Z,8.00
2018-10-02T06:42:53.852Z,7.40
2018-10-02T06:43:26.543Z,7.47
2018-10-02T06:43:59.212Z,7.75
2018-10-02T06:44:32.290Z,8.40
2018-10-02T06:45:05.284Z,8.18
2018-10-02T06:45:37.916Z,7.67
2018-10-02T06:46:10.533Z,7.87
2018-10-02T06:46:43.187Z,8.30
2018-10-02T06:47:15.812Z,8.53
2018-10-02T06:47:48.425Z,7.37
2018-10-02T06:48:21.049Z,7.83
2018-10-02T06:48:53.676Z,7.03
2018-10-02T06:49:26.358Z,7.65
2018-10-02T06:49:58.948Z,8.10
2018-10-02T06:50:31.590Z,8.35
2018-10-02T06:51:04.324Z,7.70
2018-10-02T06:51:36.937Z,7.58
2018-10-02T06:52:09.704Z,7.78
2018-10-02T06:52:42.528Z,8.10
2018-10-02T06:53:14.954Z,7.65
2018-10-02T06:53:47.591Z,7.08
2018-10-02T06:54:20.235Z,8.08
2018-10-02T06:54:52.891Z,7.83
2018-10-02T06:55:25.489Z,7.25
2018-10-02T06:55:58.114Z,8.95
2018-10-02T06:56:30.793Z,7.67
2018-10-02T06:57:03.504Z,8.08
2018-10-02T06:57:36.335Z,8.23
2018-10-02T06:58:08.984Z,8.53
2018-10-02T06:58:41.596Z,7.67
2018-10-02T06:59:14.268Z,7.05
2018-10-02T06:59:46.880Z,7.37
2018-10-02T07:00:19.480Z,8.40
2018-10-02T07:00:52.113Z,7.80
2018-10-02T07:01:24.837Z,7.47
2018-10-02T07:01:57.426Z,7.47
2018-10-02T07:02:30.142Z,7.20
2018-10-02T07:03:02.744Z,8.03
2018-10-02T07:03:35.386Z,7.22
2018-10-02T07:04:08.008Z,7.55
2018-10-02T07:04:40.659Z,7.78
2018-10-02T07:05:13.340Z,7.70
2018-10-02T07:05:45.952Z,7.78
2018-10-02T07:06:18.576Z,8.88
2018-10-02T07:06:51.287Z,9.83
2018-10-02T07:07:23.861Z,9.98
2018-10-02T07:07:56.479Z,9.83
2018-10-02T07:08:29.110Z,9.75
2018-10-02T07:09:01.746Z,10.38
2018-10-02T07:09:34.415Z,9.03
2018-10-02T07:10:07.721Z,9.98
2018-10-02T07:10:40.319Z,9.85
2018-10-02T07:11:12.945Z,10.53
2018-10-02T07:11:45.584Z,10.20
2018-10-02T07:12:18.220Z,10.20
2018-10-02T07:12:50.893Z,9.58
2018-10-02T07:13:23.525Z,9.08
2018-10-02T07:13:56.132Z,7.67
2018-10-02T07:14:28.788Z,7.40
2018-10-02T07:15:01.455Z,8.08
2018-10-02T07:15:34.053Z,7.83
2018-10-02T07:16:06.676Z,7.53
2018-10-02T07:16:39.501Z,7.72
2018-10-02T07:17:12.109Z,7.30
2018-10-02T07:17:44.716Z,7.58
2018-10-02T07:18:17.359Z,9.10
2018-10-02T07:18:50.110Z,11.10
2018-10-02T07:19:22.767Z,9.55
2018-10-02T07:19:55.364Z,8.65
2018-10-02T07:20:27.979Z,7.05
2018-10-02T07:21:00.682Z,7.30
2018-10-02T07:21:33.347Z,7.92
2018-10-02T07:22:06.007Z,7.37
2018-10-02T07:22:38.674Z,9.48
2018-10-02T07:23:11.332Z,9.40
2018-10-02T07:23:43.961Z,15.53
2018-10-02T07:24:16.597Z,13.78
2018-10-02T07:24:49.202Z,10.72
2018-10-02T07:25:21.861Z,10.03
2018-10-02T07:25:54.497Z,9.40
2018-10-02T07:26:27.155Z,9.03
2018-10-02T07:26:59.863Z,9.95
2018-10-02T07:27:32.736Z,10.13
2018-10-02T07:28:05.426Z,10.13
2018-10-02T07:28:38.180Z,11.35
2018-10-02T07:29:10.825Z,14.40
2018-10-02T07:29:43.416Z,10.43
2018-10-02T07:30:16.055Z,7.72
2018-10-02T07:30:48.799Z,8.38
2018-10-02T07:31:21.425Z,7.72
2018-10-02T07:31:54.036Z,6.87
2018-10-02T07:32:26.673Z,11.75
2018-10-02T07:32:59.383Z,9.43
2018-10-02T07:33:32.313Z,8.18
2018-10-02T07:34:05.006Z,7.90
2018-10-02T07:34:37.612Z,8.10
2018-10-02T07:35:10.225Z,7.67
2018-10-02T07:35:43.476Z,7.40
2018-10-02T07:36:16.174Z,7.47
2018-10-02T07:36:48.863Z,6.72
2018-10-02T07:37:21.512Z,7.15
2018-10-02T07:37:54.145Z,6.97
2018-10-02T07:38:26.833Z,6.35
2018-10-02T07:38:59.402Z,7.08
2018-10-02T07:39:32.084Z,5.90
2018-10-02T07:40:04.701Z,5.97
2018-10-02T07:40:37.350Z,6.37
2018-10-02T07:41:10.000Z,6.42
2018-10-02T07:41:42.775Z,6.53
2018-10-02T07:42:15.272Z,8.33
2018-10-02T07:42:47.924Z,6.67
2018-10-02T07:43:20.526Z,6.78
2018-10-02T07:43:53.128Z,6.22
2018-10-02T07:44:25.785Z,6.12
2018-10-02T07:44:58.445Z,5.62
2018-10-02T07:45:30.968Z,5.45
2018-10-02T07:46:03.640Z,5.67
2018-10-02T07:46:36.276Z,5.20
2018-10-02T07:47:08.912Z,5.95
2018-10-02T07:47:41.609Z,5.97
2018-10-02T07:48:14.278Z,6.10
2018-10-02T07:48:46.904Z,5.90
2018-10-02T07:49:19.512Z,5.72
2018-10-02T07:49:52.144Z,5.78
2018-10-02T07:50:24.775Z,5.58
2018-10-02T07:50:57.402Z,5.97
2018-10-02T07:51:30.008Z,5.90
2018-10-02T07:52:02.665Z,5.10
2018-10-02T07:52:35.292Z,5.90
2018-10-02T07:53:07.911Z,5.83
2018-10-02T07:53:40.624Z,5.60
2018-10-02T07:54:13.211Z,5.05
2018-10-02T07:54:45.817Z,5.28
2018-10-02T07:55:18.465Z,4.42
2018-10-02T07:55:51.100Z,5.90
2018-10-02T07:56:23.750Z,4.72
2018-10-02T07:56:56.458Z,5.72
2018-10-02T07:57:29.033Z,6.33
2018-10-02T07:58:01.975Z,5.20
2018-10-02T07:58:34.572Z,5.12
2018-10-02T07:59:07.237Z,5.50
2018-10-02T07:59:39.964Z,5.03
2018-10-02T08:00:12.545Z,5.30
2018-10-02T08:00:45.157Z,4.83
2018-10-02T08:01:17.770Z,5.00
2018-10-02T08:01:50.501Z,5.65
2018-10-02T08:02:23.141Z,5.08
2018-10-02T08:02:55.814Z,4.40
2018-10-02T08:03:28.378Z,4.50
2018-10-02T08:04:00.966Z,4.45
2018-10-02T08:04:33.663Z,4.28
2018-10-02T08:05:06.477Z,5.85
2018-10-02T08:05:45.601Z,5.10
2018-10-02T08:06:18.159Z,5.08
2018-10-02T08:06:50.775Z,5.53
2018-10-02T08:07:23.445Z,4.53
2018-10-02T08:07:56.087Z,5.45
2018-10-02T08:08:28.694Z,4.85
2018-10-02T08:09:01.395Z,4.40
2018-10-02T08:09:33.982Z,4.70
2018-10-02T08:10:06.648Z,4.60
2018-10-02T08:10:39.245Z,4.50
2018-10-02T08:11:11.896Z,6.78
2018-10-02T08:11:44.666Z,5.85
2018-10-02T08:12:17.286Z,5.75
2018-10-02T08:12:49.820Z,5.10
2018-10-02T08:13:22.463Z,6.65
2018-10-02T08:13:55.105Z,17.25
2018-10-02T08:14:27.765Z,15.63
2018-10-02T08:15:00.431Z,19.20
2018-10-02T08:15:33.080Z,21.20
2018-10-02T08:16:05.737Z,9.28
2018-10-02T08:16:38.951Z,6.92
2018-10-02T08:17:11.594Z,5.95
2018-10-02T08:17:44.241Z,4.80
2018-10-02T08:18:16.885Z,5.83
2018-10-02T08:18:49.488Z,5.97
2018-10-02T08:19:22.154Z,5.40
2018-10-02T08:19:54.900Z,5.53
2018-10-02T08:20:27.494Z,5.10
2018-10-02T08:21:00.206Z,8.95
2018-10-02T08:21:32.858Z,11.70
2018-10-02T08:22:05.469Z,8.78
2018-10-02T08:22:38.076Z,6.00
2018-10-02T08:23:10.737Z,5.45
2018-10-02T08:23:43.380Z,5.58
2018-10-02T08:24:15.977Z,5.30
2018-10-02T08:24:48.583Z,4.70
2018-10-02T08:25:21.233Z,3.67
2018-10-02T08:25:53.901Z,3.67
2018-10-02T08:26:26.596Z,3.75
2018-10-02T08:26:59.291Z,3.95
2018-10-02T08:27:31.834Z,7.72
2018-10-02T08:28:04.452Z,10.65
2018-10-02T08:28:37.074Z,12.98
2018-10-02T08:29:09.806Z,11.08
2018-10-02T08:29:42.511Z,13.13
2018-10-02T08:30:15.083Z,11.93
2018-10-02T08:30:48.033Z,8.38
2018-10-02T08:31:20.738Z,8.13
2018-10-02T08:31:53.419Z,9.18
2018-10-02T08:32:26.140Z,6.50
2018-10-02T08:32:58.817Z,5.15
2018-10-02T08:33:32.260Z,3.50
2018-10-02T08:34:04.905Z,3.08
2018-10-02T08:34:37.597Z,3.37
2018-10-02T08:35:09.971Z,4.05
2018-10-02T08:35:42.609Z,3.37
2018-10-02T08:36:15.456Z,12.73
2018-10-02T08:36:48.680Z,13.43
2018-10-02T08:37:21.323Z,12.58
2018-10-02T08:37:54.064Z,9.23
2018-10-02T08:38:26.828Z,10.28
2018-10-02T08:38:59.525Z,6.37
2018-10-02T08:39:32.146Z,4.35
2018-10-02T08:40:04.871Z,6.20
2018-10-02T08:40:37.543Z,6.47
2018-10-02T08:41:10.152Z,7.60
2018-10-02T08:41:42.808Z,8.80
2018-10-02T08:42:15.494Z,8.93
2018-10-02T08:42:48.136Z,6.50
2018-10-02T08:43:20.765Z,3.37
2018-10-02T08:43:53.554Z,3.22
2018-10-02T08:44:26.169Z,3.42
2018-10-02T08:44:59.130Z,3.10
2018-10-02T08:45:31.763Z,3.35
2018-10-02T08:46:04.400Z,3.80
2018-10-02T08:46:37.028Z,2.98
2018-10-02T08:47:09.646Z,3.33
2018-10-02T08:47:42.427Z,5.60
2018-10-02T08:48:15.086Z,5.20
2018-10-02T08:48:47.901Z,4.60
2018-10-02T08:49:20.536Z,5.28
2018-10-02T08:49:53.194Z,8.18
2018-10-02T08:50:25.822Z,9.00
2018-10-02T08:50:58.569Z,7.80
2018-10-02T08:52:34.487Z,3.25
2018-10-02T08:53:07.136Z,2.80
2018-10-02T08:53:39.847Z,3.50
2018-10-02T08:54:12.460Z,3.00
2018-10-02T08:54:45.066Z,3.45
2018-10-02T08:55:17.680Z,2.77
2018-10-02T08:55:50.301Z,2.90
2018-10-02T08:56:22.984Z,3.67
2018-10-02T08:56:55.578Z,2.90
2018-10-02T08:57:28.189Z,2.85
2018-10-02T08:58:00.836Z,2.47
2018-10-02T08:58:40.357Z,2.77
2018-10-02T08:59:19.825Z,4.10
2018-10-02T08:59:52.494Z,3.52
2018-10-02T09:00:25.136Z,3.90
2018-10-02T09:00:57.907Z,5.00
2018-10-02T09:01:30.539Z,6.05
2018-10-02T09:02:03.270Z,5.60
2018-10-02T09:02:35.958Z,16.77
2018-10-02T09:03:08.758Z,17.85
2018-10-02T09:03:41.437Z,13.08
2018-10-02T09:04:14.060Z,11.85
2018-10-02T09:04:46.690Z,9.23
2018-10-02T09:05:19.284Z,5.10
2018-10-02T09:05:51.895Z,4.97
2018-10-02T09:06:24.561Z,2.42
2018-10-02T09:06:57.255Z,2.92
2018-10-02T09:07:29.896Z,3.87
2018-10-02T09:08:02.531Z,3.52
2018-10-02T09:08:35.168Z,3.60
2018-10-02T09:09:09.174Z,3.60
2018-10-02T09:09:41.781Z,3.10
2018-10-02T09:10:14.416Z,3.10
2018-10-02T09:10:47.069Z,4.97
2018-10-02T09:11:19.681Z,5.03
2018-10-02T09:11:52.288Z,4.22
2018-10-02T09:12:24.904Z,4.75
2018-10-02T09:12:57.579Z,4.92
2018-10-02T09:13:30.221Z,3.60
2018-10-02T09:14:02.864Z,3.92
2018-10-02T09:14:35.541Z,2.75
2018-10-02T09:15:12.158Z,2.75
2018-10-02T09:15:40.971Z,2.95
2018-10-02T09:16:13.651Z,2.70
2018-10-02T09:16:46.290Z,2.80
2018-10-02T09:17:18.878Z,5.50
2018-10-02T09:17:51.477Z,8.35
2018-10-02T09:18:24.169Z,6.80
2018-10-02T09:18:56.788Z,5.75
2018-10-02T09:19:29.410Z,4.12
2018-10-02T09:20:02.091Z,3.05
2018-10-02T09:20:35.763Z,3.40
2018-10-02T09:21:08.473Z,2.25
2018-10-02T09:21:41.165Z,2.00
2018-10-02T09:22:13.760Z,2.47
2018-10-02T09:22:46.410Z,2.20
2018-10-02T09:23:19.066Z,2.30
2018-10-02T09:23:51.676Z,3.77
2018-10-02T09:24:24.541Z,2.85
2018-10-02T09:24:57.237Z,2.83
2018-10-02T09:25:29.891Z,2.90
2018-10-02T09:26:02.673Z,2.75
2018-10-02T09:26:35.299Z,2.70
2018-10-02T09:27:07.914Z,3.27
2018-10-02T09:27:40.571Z,3.60
2018-10-02T09:28:13.153Z,3.30
2018-10-02T09:28:45.799Z,3.58
2018-10-02T09:29:25.267Z,2.83
2018-10-02T09:30:03.322Z,2.40
2018-10-02T09:30:41.685Z,2.55
2018-10-02T09:31:20.137Z,1.80
2018-10-02T09:31:58.497Z,2.30
2018-10-02T09:32:36.645Z,1.98
2018-10-02T09:34:15.741Z,2.80
2018-10-02T09:34:54.188Z,7.12
2018-10-02T09:35:32.278Z,20.68
2018-10-02T09:36:10.753Z,16.57
2018-10-02T09:36:49.108Z,10.13
2018-10-02T09:37:27.285Z,10.80
2018-10-02T09:38:05.489Z,10.63
2018-10-02T09:38:43.612Z,6.55
2018-10-02T09:40:23.477Z,6.90
2018-10-02T09:41:01.753Z,13.85
2018-10-02T09:41:40.077Z,15.28
2018-10-02T09:42:18.301Z,12.15
2018-10-02T09:42:56.810Z,10.70
2018-10-02T09:43:38.600Z,10.50
2018-10-02T09:44:11.390Z,11.83
2018-10-02T09:44:44.130Z,7.85
2018-10-02T09:45:16.768Z,3.95
2018-10-02T09:45:49.548Z,2.40
2018-10-02T09:46:23.072Z,2.52
2018-10-02T09:46:55.713Z,2.52
2018-10-02T09:47:28.472Z,2.55
2018-10-02T09:48:07.187Z,2.60
2018-10-02T09:48:39.890Z,3.15
2018-10-02T09:49:12.512Z,3.60
2018-10-02T09:49:45.223Z,2.60
2018-10-02T09:50:17.800Z,2.70
2018-10-02T09:50:50.476Z,2.20
2018-10-02T09:51:23.474Z,2.50
2018-10-02T09:51:56.118Z,2.90
2018-10-02T09:52:28.756Z,2.47
2018-10-02T09:53:01.913Z,3.20
2018-10-02T09:53:34.572Z,3.70
2018-10-02T09:54:07.893Z,5.37
2018-10-02T09:54:41.007Z,9.05
2018-10-02T09:55:13.645Z,11.18
2018-10-02T09:55:46.250Z,9.98
2018-10-02T09:56:18.891Z,7.58
2018-10-02T09:56:51.648Z,3.40
2018-10-02T09:57:24.340Z,2.45
2018-10-02T09:57:56.945Z,1.90
2018-10-02T09:58:29.805Z,2.55
2018-10-02T09:59:02.499Z,2.62
2018-10-02T09:59:35.119Z,2.62
2018-10-02T10:00:12.317Z,2.12
2018-10-02T10:00:50.560Z,2.45
2018-10-02T10:01:29.039Z,3.08
2018-10-02T10:02:08.520Z,3.83
2018-10-02T10:02:41.490Z,2.60
2018-10-02T10:03:14.090Z,2.65
2018-10-02T10:03:46.771Z,2.83
2018-10-02T10:04:19.421Z,2.60
2018-10-02T10:04:52.054Z,2.67
2018-10-02T10:05:24.729Z,2.17
2018-10-02T10:05:57.384Z,2.55
2018-10-02T10:06:29.996Z,3.12
2018-10-02T10:07:02.644Z,2.12
2018-10-02T10:07:35.284Z,5.45
2018-10-02T10:08:07.924Z,5.97
2018-10-02T10:08:40.581Z,3.08
2018-10-02T10:09:13.219Z,2.62
2018-10-02T10:09:45.850Z,2.25
2018-10-02T10:10:18.530Z,2.58
2018-10-02T10:10:51.132Z,2.20
2018-10-02T10:11:23.748Z,2.10
2018-10-02T10:11:56.353Z,2.47
2018-10-02T10:12:29.148Z,2.90
2018-10-02T10:13:01.801Z,3.00
2018-10-02T10:13:35.148Z,2.40
2018-10-02T10:14:08.042Z,2.55
2018-10-02T10:14:40.640Z,2.27
2018-10-02T10:15:13.288Z,2.02
2018-10-02T10:15:45.925Z,2.33
2018-10-02T10:16:18.563Z,2.47
2018-10-02T10:16:51.232Z,2.30
2018-10-02T10:17:24.469Z,2.45
2018-10-02T10:17:57.128Z,2.08
2018-10-02T10:18:29.726Z,2.72
2018-10-02T10:19:02.511Z,3.37
2018-10-02T10:19:35.181Z,3.80
2018-10-02T10:20:07.833Z,3.55
2018-10-02T10:20:40.432Z,3.50
2018-10-02T10:21:13.229Z,3.98
2018-10-02T10:21:45.886Z,5.28
2018-10-02T10:22:18.528Z,3.85
2018-10-02T10:22:51.151Z,58.40
2018-10-02T10:23:23.784Z,14.43
2018-10-02T10:23:56.446Z,5.72
2018-10-02T10:24:29.274Z,4.03
2018-10-02T10:25:01.892Z,4.50
2018-10-02T10:25:34.526Z,6.72
2018-10-02T10:26:07.185Z,5.22
2018-10-02T10:26:40.039Z,3.25
2018-10-02T10:27:12.608Z,1.95
2018-10-02T10:27:45.216Z,3.45
2018-10-02T10:28:17.904Z,5.10
2018-10-02T10:28:50.564Z,6.65
2018-10-02T10:29:23.149Z,8.78
2018-10-02T10:29:55.798Z,7.10
2018-10-02T10:30:28.448Z,7.00
2018-10-02T10:31:01.190Z,7.70
2018-10-02T10:31:33.802Z,4.75
2018-10-02T10:32:06.551Z,6.65
2018-10-02T10:32:39.144Z,5.78
2018-10-02T10:33:11.752Z,3.90
2018-10-02T10:33:44.356Z,3.17
2018-10-02T10:34:17.006Z,2.70
2018-10-02T10:34:49.638Z,2.30
2018-10-02T10:35:22.636Z,1.95
2018-10-02T10:35:55.240Z,2.12
2018-10-02T10:36:27.919Z,2.20
2018-10-02T10:37:00.561Z,2.40
2018-10-02T10:37:35.137Z,2.15
2018-10-02T10:38:07.801Z,2.30
2018-10-02T10:38:40.560Z,2.30
2018-10-02T10:39:13.180Z,2.15
2018-10-02T10:39:45.892Z,2.65
2018-10-02T10:40:18.493Z,2.12
2018-10-02T10:40:51.228Z,2.52
2018-10-02T10:41:23.888Z,2.85
2018-10-02T10:41:56.545Z,2.62
2018-10-02T10:42:29.189Z,2.25
2018-10-02T10:43:01.880Z,2.50
2018-10-02T10:43:34.495Z,2.33
2018-10-02T10:44:07.383Z,2.45
2018-10-02T10:44:40.023Z,2.67
2018-10-02T10:45:12.705Z,2.20
2018-10-02T10:45:45.389Z,2.58
2018-10-02T10:46:18.071Z,5.22
2018-10-02T10:46:50.750Z,10.30
2018-10-02T10:47:23.409Z,6.62
2018-10-02T10:47:56.027Z,5.72
2018-10-02T10:48:28.687Z,3.22
2018-10-02T10:49:01.313Z,3.00
2018-10-02T10:49:33.921Z,1.80
2018-10-02T10:50:06.577Z,1.80
2018-10-02T10:50:39.185Z,1.70
2018-10-02T10:51:11.785Z,2.50
2018-10-02T10:51:44.476Z,2.65
2018-10-02T10:52:17.203Z,2.10
2018-10-02T10:52:49.910Z,1.80
2018-10-02T10:53:22.510Z,2.45
2018-10-02T10:53:55.148Z,2.30
2018-10-02T10:54:27.762Z,1.72
2018-10-02T10:55:11.685Z,2.58
2018-10-02T10:55:44.319Z,1.87
2018-10-02T10:56:17.031Z,1.90
2018-10-02T10:56:49.762Z,1.90
2018-10-02T10:57:22.377Z,2.00
2018-10-02T10:57:55.045Z,2.10
2018-10-02T10:58:27.765Z,1.60
2018-10-02T10:59:00.463Z,1.75
2018-10-02T10:59:33.146Z,2.10
2018-10-02T11:00:05.853Z,2.20
2018-10-02T11:00:38.496Z,1.80
2018-10-02T11:01:11.093Z,2.30
2018-10-02T11:01:44.718Z,2.20
2018-10-02T11:02:17.423Z,2.25
2018-10-02T11:02:50.052Z,2.22
2018-10-02T11:03:22.708Z,2.35
2018-10-02T11:03:55.320Z,1.82
2018-10-02T11:04:28.028Z,2.33
2018-10-02T11:05:00.629Z,2.52
2018-10-02T11:05:33.297Z,1.65
2018-10-02T11:06:06.241Z,2.10
2018-10-02T11:06:38.902Z,1.75
2018-10-02T11:07:11.535Z,1.80
2018-10-02T11:07:44.242Z,3.87
2018-10-02T11:08:16.876Z,8.35
2018-10-02T11:08:49.505Z,4.05
2018-10-02T11:09:22.171Z,2.05
2018-10-02T11:09:54.748Z,2.15
2018-10-02T11:10:27.394Z,2.12
2018-10-02T11:11:00.050Z,4.10
2018-10-02T11:11:32.657Z,2.90
2018-10-02T11:12:05.631Z,3.10
2018-10-02T11:12:38.585Z,2.37
2018-10-02T11:13:11.232Z,3.33
2018-10-02T11:13:43.882Z,2.30
2018-10-02T11:14:16.493Z,2.62
2018-10-02T11:14:49.161Z,2.52
2018-10-02T11:15:22.450Z,1.90
2018-10-02T11:15:55.044Z,2.00
2018-10-02T11:16:27.707Z,2.37
2018-10-02T11:17:39.727Z,2.10
2018-10-02T11:18:12.400Z,2.40
2018-10-02T11:18:45.045Z,2.00
2018-10-02T11:19:17.669Z,2.05
2018-10-02T11:19:50.304Z,1.60
2018-10-02T11:20:26.817Z,2.02
2018-10-02T11:20:59.514Z,2.35
2018-10-02T11:21:32.155Z,1.80
2018-10-02T11:22:04.837Z,2.15
2018-10-02T11:22:37.485Z,2.00